CST,Max TemperatureF,Mean TemperatureF,Min TemperatureF,Max Dew PointF,MeanDew PointF,Min DewpointF,Max Humidity, Mean Humidity, Min Humidity, Max Sea Level PressureIn, Mean Sea Level PressureIn, Min Sea Level PressureIn, Max VisibilityMiles, Mean VisibilityMiles, Min VisibilityMiles, Max Wind SpeedMPH, Mean Wind SpeedMPH, Max Gust SpeedMPH,PrecipitationIn, CloudCover, Events, WindDirDegrees
2014-1-1,50,39,28,39,33,27,100,81,54,30.28,30.12,29.96,10,10,7,13,7,,0.00,2,,168
2014-1-2,41,30,19,39,19,10,100,69,47,30.50,30.25,29.95,10,9,1,26,13,34,0.30,2,Rain-Snow,338
2014-1-3,32,23,14,18,13,9,80,65,47,30.56,30.42,30.20,10,10,10,14,8,22,0.00,0,,141
2014-1-4,41,34,26,32,22,16,75,62,48,30.19,30.05,29.90,10,10,10,20,11,25,0.00,4,,166
2014-1-5,42,28,14,37,24,0,100,81,53,30.38,29.95,29.73,10,7,1,29,11,40,0.98,5,Rain,347
2014-1-6,14,10,5,-2,-6,-9,61,53,44,30.62,30.55,30.39,10,10,10,28,18,34,0.00,0,,301
2014-1-7,28,17,6,16,7,-4,73,60,50,30.60,30.47,30.35,10,10,9,23,10,30,0.00,0,,205
2014-1-8,35,30,24,28,21,16,87,68,48,30.45,30.41,30.37,10,10,5,15,10,20,0.04,4,Rain,196
2014-1-9,33,32,32,34,31,28,100,98,87,30.43,30.32,30.19,10,3,0,14,6,21,0.14,6,Fog-Rain,105
2014-1-10,50,41,32,50,42,32,100,100,100,30.18,29.91,29.63,10,4,0,18,7,25,0.83,7,Fog-Rain,147
2014-1-11,50,42,35,46,36,32,100,83,62,30.01,29.83,29.63,10,10,7,16,10,24,0.00,1,,258
2014-1-12,57,44,32,39,35,28,100,71,48,30.07,29.95,29.80,10,10,10,30,10,36,0.00,0,,188
2014-1-13,62,50,37,50,39,28,88,65,39,29.94,29.81,29.74,10,10,10,23,16,29,0.00,1,,245
2014-1-14,53,42,32,37,29,16,93,61,40,30.14,29.97,29.89,10,10,10,16,9,23,0.00,0,,269
2014-1-15,37,32,26,23,15,10,80,53,35,30.25,30.18,30.08,10,10,10,15,10,23,0.00,0,,290
2014-1-16,53,40,28,34,25,18,75,57,38,30.07,29.91,29.78,10,10,10,24,13,36,0.00,3,Rain,230
2014-1-17,37,30,23,27,15,9,80,55,38,30.19,30.10,29.91,10,10,10,34,16,52,0.00,1,,288
2014-1-18,53,38,23,32,23,16,80,55,41,30.16,29.94,29.72,10,10,10,31,12,39,0.00,4,,233
2014-1-19,46,36,26,32,27,19,86,66,49,30.20,30.06,29.93,10,10,9,22,12,29,0.00,0,,243
2014-1-20,57,45,33,37,31,28,81,62,36,29.98,29.93,29.86,10,7,0,16,8,26,0.00,0,,258
2014-1-21,42,32,21,28,13,5,74,54,37,30.34,30.22,29.96,10,10,7,30,15,41,0.00,1,,357
2014-1-22,41,31,21,21,16,10,80,59,39,30.27,30.18,30.07,10,10,9,18,9,23,0.00,2,,249
2014-1-23,32,21,10,18,-1,-8,73,41,26,30.80,30.62,30.28,10,10,10,21,12,26,0.00,0,,346
2014-1-24,30,19,8,12,4,0,73,51,34,30.79,30.46,30.00,10,10,8,26,11,34,0.00,1,,226
2014-1-25,55,42,28,28,19,9,80,45,29,30.01,29.93,29.85,10,10,9,25,16,33,0.00,2,,265
2014-1-26,60,43,26,39,30,16,87,63,42,29.96,29.78,29.65,10,10,10,20,9,26,0.00,0,,207
2014-1-27,44,32,17,32,0,-11,87,34,22,30.47,30.29,29.82,10,10,10,30,16,38,0.00,3,,3
2014-1-28,24,19,14,7,-3,-11,73,42,22,30.54,30.46,30.40,10,10,10,18,11,22,0.00,2,,35
2014-1-29,35,22,8,12,7,1,79,55,30,30.46,30.37,30.25,10,10,10,16,6,20,0.00,1,,179
2014-1-30,41,32,23,18,12,9,60,45,28,30.24,30.08,29.96,10,10,9,33,15,41,0.00,0,,187
2014-1-31,41,34,28,39,29,14,100,79,44,30.09,30.01,29.95,10,6,0,15,6,,0.03,5,Rain,106